createdAt,value
2018-05-17T15:11:26.176Z,5.60
2018-05-17T15:12:26.142Z,5.70
2018-05-17T15:14:19.046Z,5.90
2018-05-17T15:15:19.065Z,6.50
2018-05-17T15:17:11.945Z,6.30
2018-05-17T15:18:11.937Z,6.20
2018-05-17T15:20:04.842Z,6.00
2018-05-17T15:21:04.841Z,6.70
2018-05-17T15:22:58.761Z,5.90
2018-05-17T15:23:58.839Z,6.50
2018-05-17T15:25:51.713Z,6.40
2018-05-17T15:26:51.653Z,6.70
2018-05-17T15:28:44.851Z,6.90
2018-05-17T15:29:44.618Z,7.00
2018-05-17T15:31:37.445Z,6.40
2018-05-17T15:32:37.448Z,6.00
2018-05-17T15:34:30.372Z,5.60
2018-05-17T15:35:30.349Z,6.40
2018-05-17T15:37:23.247Z,6.20
2018-05-17T15:41:01.640Z,6.10
2018-05-17T15:42:01.519Z,6.90
2018-05-17T15:43:54.217Z,5.80
2018-05-17T15:45:28.591Z,5.70
2018-05-17T15:46:28.478Z,6.10
2018-05-17T15:48:21.189Z,6.50
2018-05-17T15:49:21.070Z,6.60
2018-05-17T15:51:13.760Z,6.80
2018-05-17T15:52:13.673Z,6.20
2018-05-17T15:53:45.572Z,5.60
2018-05-17T15:54:45.438Z,5.30
2018-05-17T15:55:55.075Z,5.60
2018-05-17T15:56:54.977Z,4.50
2018-05-17T15:58:38.218Z,3.90
2018-05-17T16:29:48.753Z,16.30
2018-05-17T16:30:48.580Z,15.50
2018-05-17T16:32:41.274Z,12.20
2018-05-17T16:33:41.151Z,10.80
2018-05-17T18:04:19.611Z,13.60
2018-05-17T18:05:19.411Z,16.90
2018-05-17T18:07:13.019Z,17.30
2018-05-17T18:08:12.893Z,15.90
2018-05-17T18:10:06.058Z,15.10
2018-05-17T18:11:05.957Z,19.60
2018-05-17T18:12:59.152Z,17.60
2018-05-17T18:13:59.024Z,15.70
2018-05-17T18:15:51.709Z,15.30
2018-05-17T18:16:51.603Z,17.10
2018-05-17T18:18:44.801Z,15.60
2018-05-17T18:19:44.679Z,14.60
2018-05-17T18:21:37.855Z,15.70
2018-05-17T18:22:37.761Z,14.60
2018-05-17T18:24:30.688Z,15.70
2018-05-17T18:25:30.560Z,15.20
2018-05-17T18:27:23.254Z,15.70
2018-05-17T18:28:23.144Z,15.70
2018-05-17T18:30:15.863Z,16.00
2018-05-17T18:31:15.747Z,15.20
2018-05-17T18:41:53.319Z,4.90
2018-05-17T18:42:53.181Z,7.80
2018-05-17T18:44:45.874Z,7.50
2018-05-17T18:45:45.806Z,8.70
2018-05-17T18:47:38.522Z,8.50
2018-05-17T18:48:38.340Z,8.40
2018-05-17T18:50:31.027Z,7.50
2018-05-17T18:51:30.922Z,7.70
2018-05-17T18:53:23.625Z,8.00
2018-05-17T18:54:23.600Z,7.80
2018-05-17T18:56:16.234Z,7.70
2018-05-17T18:57:16.132Z,7.50
2018-05-17T18:59:08.830Z,9.00
2018-05-17T19:00:08.731Z,8.00
2018-05-17T19:02:01.392Z,9.10
2018-05-17T19:03:01.290Z,9.10
2018-05-17T19:04:53.998Z,8.00
2018-05-17T19:05:53.872Z,8.20
2018-05-17T19:07:46.553Z,8.20
2018-05-17T19:08:46.524Z,8.50
2018-05-17T19:10:39.152Z,7.90
2018-05-17T19:11:39.026Z,8.40
2018-05-17T19:13:31.732Z,8.20
2018-05-17T19:14:31.615Z,7.90
2018-05-17T19:16:24.299Z,8.80
2018-05-17T19:17:24.181Z,9.30
2018-05-17T19:19:16.887Z,8.20
2018-05-17T19:20:16.765Z,7.90
2018-05-17T19:22:09.447Z,8.20
2018-05-17T19:23:09.341Z,8.60
2018-05-17T19:25:02.040Z,8.30
2018-05-17T19:26:01.972Z,8.60
2018-05-17T19:27:54.627Z,7.70
2018-05-17T19:28:54.586Z,8.70
2018-05-17T19:30:47.382Z,8.30
2018-05-17T19:31:47.277Z,8.70
2018-05-17T19:33:39.965Z,7.50
2018-05-17T19:34:39.839Z,8.10
2018-05-17T19:36:32.520Z,7.30
2018-05-17T19:37:32.415Z,8.60
2018-05-17T19:39:25.168Z,8.30
2018-05-17T19:40:25.142Z,7.70
2018-05-17T19:42:17.803Z,8.30
2018-05-17T19:43:17.606Z,8.10
2018-05-17T19:45:10.291Z,8.40
2018-05-17T19:46:10.178Z,7.90
2018-05-17T19:48:02.997Z,7.90
2018-05-17T19:49:02.748Z,8.40
2018-05-17T19:50:55.605Z,8.20
2018-05-17T19:51:55.372Z,7.50
2018-05-17T19:53:48.088Z,8.10
2018-05-17T19:54:47.989Z,8.60
2018-05-17T19:56:40.614Z,7.20
2018-05-17T19:57:40.534Z,7.90
2018-05-17T19:59:33.310Z,7.50
2018-05-17T20:00:33.086Z,7.20
2018-05-17T20:02:25.768Z,7.60
2018-05-17T20:03:25.667Z,7.50
2018-05-17T20:05:18.380Z,7.80
2018-05-17T20:06:18.242Z,7.80
2018-05-17T20:08:11.119Z,7.90
2018-05-17T20:09:10.883Z,7.10
2018-05-17T20:11:03.650Z,7.50
2018-05-17T20:12:03.454Z,7.10
2018-05-17T20:13:56.152Z,8.10
2018-05-17T20:14:56.047Z,8.20
2018-05-17T20:16:48.768Z,7.70
2018-05-17T20:17:48.603Z,7.40
2018-05-17T20:19:41.305Z,7.50
2018-05-17T20:20:41.184Z,7.30
2018-05-17T20:22:33.868Z,8.10
2018-05-17T20:23:33.759Z,7.90
2018-05-17T20:25:26.627Z,8.40
2018-05-17T20:26:26.343Z,7.90
2018-05-17T20:28:19.159Z,7.90
2018-05-17T20:29:18.948Z,7.60
2018-05-17T20:31:11.754Z,7.90
2018-05-17T20:32:11.546Z,8.40
2018-05-17T20:34:04.241Z,7.50
2018-05-17T20:35:04.080Z,7.60
2018-05-17T20:36:56.762Z,7.80
2018-05-17T20:37:56.653Z,7.90
2018-05-17T20:39:49.343Z,8.00
2018-05-17T20:40:49.245Z,7.50
2018-05-17T20:42:41.971Z,8.00
2018-05-17T20:43:41.863Z,7.60
2018-05-17T20:45:34.555Z,8.50
2018-05-17T20:46:34.432Z,8.10
2018-05-17T20:48:27.111Z,7.80
2018-05-17T20:49:27.038Z,7.90
2018-05-17T20:51:19.696Z,7.50
2018-05-17T20:52:19.578Z,8.30
2018-05-17T20:54:12.253Z,7.80
2018-05-17T20:55:12.152Z,8.20
2018-05-17T20:57:04.856Z,7.80
2018-05-17T20:58:04.730Z,8.10
2018-05-17T20:59:57.414Z,7.80
2018-05-17T21:00:57.300Z,8.30
2018-05-17T21:02:50.495Z,8.50
2018-05-17T21:03:50.367Z,8.30
2018-05-17T21:05:43.042Z,8.20
2018-05-17T21:06:42.938Z,8.60
2018-05-17T21:08:35.631Z,7.80
2018-05-17T21:09:35.509Z,7.40
2018-05-17T21:11:28.187Z,8.60
2018-05-17T21:12:28.093Z,8.40
2018-05-17T21:14:20.781Z,8.20
2018-05-17T21:15:20.652Z,7.70
2018-05-17T21:17:13.335Z,8.30
2018-05-17T21:18:13.234Z,8.90
2018-05-17T21:20:05.989Z,9.20
2018-05-17T21:21:05.928Z,8.30
2018-05-17T21:22:58.536Z,8.10
2018-05-17T21:23:58.435Z,8.20
2018-05-17T21:25:51.138Z,8.20
2018-05-17T21:26:51.013Z,8.00
2018-05-17T21:28:43.697Z,8.00
2018-05-17T21:29:43.588Z,7.70
2018-05-17T21:31:36.279Z,7.90
2018-05-17T21:32:36.154Z,7.70
2018-05-17T21:34:28.837Z,7.90
2018-05-17T21:35:28.730Z,8.60
2018-05-17T21:37:21.439Z,7.80
2018-05-17T21:38:21.307Z,8.10
2018-05-17T21:40:13.982Z,8.10
2018-05-17T21:41:13.880Z,7.70
2018-05-17T21:43:06.573Z,8.20
2018-05-17T21:44:06.459Z,7.00
2018-05-17T21:45:59.285Z,7.00
2018-05-17T21:46:59.020Z,7.90
2018-05-17T21:48:51.717Z,7.90
2018-05-17T21:49:51.588Z,7.90
2018-05-17T21:51:44.272Z,8.70
2018-05-17T21:52:44.170Z,7.90
2018-05-17T21:54:36.856Z,8.40
2018-05-17T21:55:36.750Z,7.30
2018-05-17T21:57:29.411Z,8.10
2018-05-17T21:58:29.310Z,8.30
